This is the latest recevied weather packets stored in our database for station/object KM7BEO. If no packets are shown the sender has not sent any weather packets the latest 10 day(s).
| Time | Temp. | Humidity | Pressure | Rain* | Wind** | Luminosity | Snow |
|---|---|---|---|---|---|---|---|
| 1777981403 | 11.67° C | 95% | 1013 hPa | 0 mm | - | 0 W/m² | - |
| 1777981099 | 11.67° C | 95% | 1013.1 hPa | 0 mm | - | 0 W/m² | - |
| 1777980795 | 11.67° C | 96% | 1012.8 hPa | 0 mm | - | 0 W/m² | - |
| 1777980491 | 11.67° C | 96% | 1012.9 hPa | 0 mm | - | 0 W/m² | - |
| 1777980189 | 11.11° C | 96% | 1012.8 hPa | 0 mm | - | 0 W/m² | - |
| 1777979884 | 11.11° C | 96% | 1012.8 hPa | 0 mm | - | 0 W/m² | - |
| 1777979580 | 11.11° C | 96% | 1012.7 hPa | 0 mm | - | 0 W/m² | - |
| 1777979276 | 10.56° C | 96% | 1012.7 hPa | 0 mm | - | 0 W/m² | - |
| 1777978974 | 10.56° C | 96% | 1012.7 hPa | 0 mm | - | 0 W/m² | - |
| 1777978670 | 10° C | 96% | 1012.6 hPa | 0 mm | - | 0 W/m² | - |
| 1777978366 | 10° C | 96% | 1012.6 hPa | 0 mm | - | 0 W/m² | - |
| 1777886224 | 12.78° C | 73% | 1008.7 hPa | 0 mm | - | 0 W/m² | - |
| 1777885921 | 12.78° C | 71% | 1008.8 hPa | 0 mm | - | 0 W/m² | - |
| 1777885619 | 12.78° C | 70% | 1008.7 hPa | 0 mm | - | 0 W/m² | - |
| 1777885317 | 13.33° C | 68% | 1008.5 hPa | 0 mm | - | 0 W/m² | - |
| 1777885015 | 13.33° C | 67% | 1008.6 hPa | 0 mm | - | 0 W/m² | - |
| 1777884710 | 13.33° C | 65% | 1008.7 hPa | 0 mm | - | 0 W/m² | - |
| 1777884407 | 13.89° C | 66% | 1008.6 hPa | 0 mm | - | 0 W/m² | - |
| 1777884104 | 13.89° C | 65% | 1008.8 hPa | 0 mm | - | 0 W/m² | - |
| 1777883801 | 13.33° C | 64% | 1008.6 hPa | 0 mm | - | 0 W/m² | - |
| 1777883498 | 13.33° C | 65% | 1008.7 hPa | 0 mm | - | 0 W/m² | - |
| 1777883194 | 13.33° C | 65% | 1008.8 hPa | 0 mm | - | 0 W/m² | - |
| 1777882890 | 13.89° C | 63% | 1008.6 hPa | 0 mm | - | 0 W/m² | - |
| 1777882588 | 13.89° C | 62% | 1008.5 hPa | 0 mm | - | 0 W/m² | - |
| 1777882283 | 13.89° C | 60% | 1008.6 hPa | 0 mm | - | 0 W/m² | - |
* Rain latest hour (hover to see other rain measurements)
** Current wind speed in m/s (hover to see current wind gust speed)